Time;durP1;ratioP1;P1;durP2;ratioP2;P2;SDS_P1;SDS_P2;PMS_P1;PMS_P2;Temp;Humidity;BMP_temperature;BMP_pressure;BME280_temperature;BME280_humidity;BME280_pressure;Samples;Min_cycle;Max_cycle;Signal;HPM_P1;HPM_P2
2023/04/07 00:00:42;;;;;;;8.13;5.10;;;;;;;-1.52;100.00;101356.16;4911468;29;20054;-79
2023/04/07 00:03:10;;;;;;;8.70;5.20;;;;;;;-1.45;100.00;101353.84;4925707;29;20043;-78
2023/04/07 00:05:37;;;;;;;9.10;6.63;;;;;;;-1.50;100.00;101357.13;4919513;29;20039;-78
2023/04/07 00:08:05;;;;;;;7.43;5.07;;;;;;;-1.49;100.00;101351.09;4900548;29;20047;-78
2023/04/07 00:10:31;;;;;;;7.97;5.80;;;;;;;-1.54;100.00;101356.09;4903450;29;20051;-79
2023/04/07 00:13:01;;;;;;;7.57;5.50;;;;;;;-1.50;100.00;101350.22;4917575;29;20082;-78
2023/04/07 00:15:30;;;;;;;7.80;5.27;;;;;;;-1.54;100.00;101347.44;4913216;29;20039;-78
2023/04/07 00:17:57;;;;;;;9.00;5.20;;;;;;;-1.71;100.00;101342.47;4911093;29;20142;-78
2023/04/07 00:20:25;;;;;;;8.53;4.87;;;;;;;-1.69;100.00;101347.69;4894629;29;20044;-78
2023/04/07 00:22:52;;;;;;;7.73;4.53;;;;;;;-1.61;100.00;101348.91;4904470;29;20067;-78
2023/04/07 00:25:18;;;;;;;8.17;5.47;;;;;;;-1.66;100.00;101347.84;4896710;29;20040;-77
2023/04/07 00:27:45;;;;;;;8.43;5.37;;;;;;;-1.71;100.00;101337.28;4913619;29;20143;-78
2023/04/07 00:30:14;;;;;;;8.67;5.47;;;;;;;-1.74;100.00;101344.94;4899836;29;20043;-79
2023/04/07 00:32:42;;;;;;;9.60;5.37;;;;;;;-1.72;100.00;101343.28;4897765;29;20548;-79
2023/04/07 00:35:11;;;;;;;8.63;5.40;;;;;;;-1.74;100.00;101338.88;4913529;29;20036;-79
2023/04/07 00:37:37;;;;;;;7.43;5.30;;;;;;;-1.85;100.00;101343.66;4918803;29;20819;-77
2023/04/07 00:40:05;;;;;;;8.23;5.20;;;;;;;-1.84;100.00;101339.34;4912914;29;20048;-79
2023/04/07 00:42:34;;;;;;;9.13;5.57;;;;;;;-1.82;100.00;101341.16;4916772;29;20054;-78
2023/04/07 00:45:02;;;;;;;8.17;5.20;;;;;;;-1.83;100.00;101346.28;4904336;29;20513;-78
2023/04/07 00:47:28;;;;;;;6.80;5.17;;;;;;;-1.86;100.00;101339.25;4916012;29;20043;-78
2023/04/07 00:49:55;;;;;;;6.33;4.83;;;;;;;-1.87;100.00;101344.38;4917045;29;20050;-78
2023/04/07 00:52:27;;;;;;;11.63;6.10;;;;;;;-1.88;100.00;101332.25;4916234;29;20040;-78
2023/04/07 00:54:54;;;;;;;8.90;5.50;;;;;;;-1.94;100.00;101337.19;4902002;29;20477;-78
2023/04/07 00:57:21;;;;;;;8.73;6.30;;;;;;;-2.09;100.00;101329.69;4915752;29;20493;-78
2023/04/07 00:59:49;;;;;;;9.40;6.47;;;;;;;-2.18;100.00;101334.50;4915024;29;20062;-78
2023/04/07 01:02:32;;;;;;;8.17;6.00;;;;;;;-2.09;100.00;101330.56;4896845;29;20052;-78
2023/04/07 01:05:14;;;;;;;8.53;5.53;;;;;;;-2.09;100.00;101327.09;4896325;29;20049;-79
2023/04/07 01:08:25;;;;;;;9.43;5.47;;;;;;;-2.13;100.00;101331.25;4916385;29;20139;-78
2023/04/07 01:10:56;;;;;;;9.20;6.30;;;;;;;-2.21;100.00;101331.75;4943743;29;20051;-78
2023/04/07 01:13:45;;;;;;;10.07;6.20;;;;;;;-2.14;100.00;101326.91;4900595;29;20047;-78
2023/04/07 01:16:16;;;;;;;8.70;5.77;;;;;;;-2.10;100.00;101331.41;4903457;29;20398;-79
2023/04/07 01:18:43;;;;;;;9.50;6.57;;;;;;;-2.02;100.00;101329.09;4918498;29;20055;-78
2023/04/07 01:21:13;;;;;;;8.47;6.13;;;;;;;-2.33;100.00;101330.44;4926918;29;20417;-78
2023/04/07 01:24:05;;;;;;;8.13;6.00;;;;;;;-2.16;100.00;101325.06;4899305;29;20042;-78
2023/04/07 01:26:32;;;;;;;9.13;5.90;;;;;;;-2.16;100.00;101320.78;4920540;29;20071;-79
2023/04/07 01:29:34;;;;;;;8.07;6.13;;;;;;;-2.22;100.00;101324.81;4898215;29;20044;-78
2023/04/07 01:32:06;;;;;;;9.37;6.40;;;;;;;-2.40;100.00;101318.06;4914813;29;20036;-78
2023/04/07 01:34:34;;;;;;;9.63;6.50;;;;;;;-2.42;100.00;101321.41;4920006;29;20058;-79
2023/04/07 01:37:01;;;;;;;11.33;7.17;;;;;;;-2.28;100.00;101309.91;4912137;29;20047;-78
2023/04/07 01:39:29;;;;;;;9.40;6.27;;;;;;;-2.24;100.00;101311.81;4916679;29;20048;-79
2023/04/07 01:41:56;;;;;;;7.53;5.57;;;;;;;-2.18;100.00;101308.59;4896750;29;20602;-78
2023/04/07 01:44:23;;;;;;;7.60;5.70;;;;;;;-2.29;100.00;101308.13;4936072;29;20059;-78
2023/04/07 01:46:50;;;;;;;9.83;5.77;;;;;;;-2.32;100.00;101306.31;4917652;29;20044;-79
2023/04/07 01:49:17;;;;;;;8.20;5.80;;;;;;;-2.38;100.00;101308.66;4934523;29;20193;-78
2023/04/07 01:51:49;;;;;;;8.67;6.10;;;;;;;-2.27;100.00;101310.00;4902176;29;20705;-79
2023/04/07 01:54:16;;;;;;;12.27;5.77;;;;;;;-2.37;100.00;101313.00;4916699;29;20076;-78
2023/04/07 01:56:44;;;;;;;8.20;5.80;;;;;;;-2.24;100.00;101311.81;4898254;29;20045;-78
2023/04/07 01:59:11;;;;;;;8.70;5.97;;;;;;;-2.34;100.00;101309.69;4930457;29;20074;-79
2023/04/07 02:01:37;;;;;;;9.87;5.77;;;;;;;-2.42;100.00;101313.63;4940908;29;20051;-79
2023/04/07 02:04:13;;;;;;;7.73;5.40;;;;;;;-2.40;100.00;101312.00;4920341;29;20122;-79
2023/04/07 02:06:58;;;;;;;9.07;5.67;;;;;;;-2.51;100.00;101301.19;4915591;29;20036;-78
2023/04/07 02:09:26;;;;;;;8.97;5.87;;;;;;;-2.51;100.00;101308.09;4917106;29;20047;-78
2023/04/07 02:11:54;;;;;;;9.53;6.77;;;;;;;-2.56;100.00;101313.03;4896860;29;20048;-79
2023/04/07 02:14:23;;;;;;;9.53;5.97;;;;;;;-2.53;100.00;101307.09;4927833;29;20050;-79
2023/04/07 02:16:51;;;;;;;11.57;5.80;;;;;;;-2.47;100.00;101304.78;4905525;29;20050;-79
2023/04/07 02:19:18;;;;;;;7.33;5.83;;;;;;;-2.54;100.00;101301.06;4916341;29;20047;-78
2023/04/07 02:21:50;;;;;;;10.03;5.97;;;;;;;-2.56;100.00;101301.00;4929016;29;20062;-78
2023/04/07 02:24:21;;;;;;;9.13;6.00;;;;;;;-2.64;100.00;101297.19;4916683;29;20044;-79
2023/04/07 02:26:47;;;;;;;8.90;6.23;;;;;;;-2.58;100.00;101299.16;4899606;29;20064;-79
2023/04/07 02:29:14;;;;;;;8.20;6.30;;;;;;;-2.57;100.00;101298.34;4915074;29;20052;-77
2023/04/07 02:31:41;;;;;;;11.70;6.20;;;;;;;-2.60;100.00;101290.47;4897072;29;20048;-79
2023/04/07 02:34:08;;;;;;;8.43;6.47;;;;;;;-2.55;100.00;101294.13;4900124;29;20103;-79
2023/04/07 02:36:35;;;;;;;8.47;5.97;;;;;;;-2.56;100.00;101285.47;4897274;29;20055;-78
2023/04/07 02:39:02;;;;;;;9.27;6.33;;;;;;;-2.44;100.00;101294.56;4932095;29;20523;-79
2023/04/07 02:41:29;;;;;;;8.33;6.27;;;;;;;-2.41;100.00;101297.28;4914152;29;20055;-78
2023/04/07 02:43:55;;;;;;;7.80;5.97;;;;;;;-2.46;100.00;101286.72;4917337;29;20420;-78
2023/04/07 02:46:23;;;;;;;10.53;6.97;;;;;;;-2.38;100.00;101292.22;4902319;29;20124;-78
2023/04/07 02:48:50;;;;;;;10.67;6.23;;;;;;;-2.44;100.00;101287.69;4916153;29;20051;-79
2023/04/07 02:51:17;;;;;;;10.17;6.00;;;;;;;-2.50;100.00;101292.63;4927649;29;20421;-78
2023/04/07 02:53:46;;;;;;;9.63;6.27;;;;;;;-2.45;100.00;101296.25;4930508;29;21560;-78
2023/04/07 02:56:14;;;;;;;8.47;6.23;;;;;;;-2.46;100.00;101291.91;4932332;29;20051;-78
2023/04/07 02:58:41;;;;;;;9.73;6.63;;;;;;;-2.39;100.00;101286.19;4918154;29;20413;-78
2023/04/07 03:01:07;;;;;;;9.47;6.60;;;;;;;-2.44;100.00;101294.56;4914189;29;21225;-79
2023/04/07 03:03:34;;;;;;;10.50;7.03;;;;;;;-2.47;100.00;101297.91;4914879;29;20104;-79
2023/04/07 03:06:01;;;;;;;12.70;7.67;;;;;;;-2.51;100.00;101293.44;4926500;29;20035;-79
2023/04/07 03:08:28;;;;;;;11.27;7.37;;;;;;;-2.51;100.00;101292.56;4914452;29;20040;-78
2023/04/07 03:10:54;;;;;;;11.03;7.07;;;;;;;-2.50;100.00;101292.63;4929646;29;20047;-78
2023/04/07 03:13:21;;;;;;;11.47;6.20;;;;;;;-2.40;100.00;101293.88;4931623;29;20083;-79
2023/04/07 03:15:48;;;;;;;9.97;6.40;;;;;;;-2.50;100.00;101284.84;4918753;29;20043;-80
2023/04/07 03:18:15;;;;;;;8.30;6.07;;;;;;;-2.53;100.00;101299.34;4911856;29;20058;-78
2023/04/07 03:20:43;;;;;;;9.60;6.50;;;;;;;-2.48;100.00;101280.63;4910880;29;20051;-78
2023/04/07 03:23:10;;;;;;;9.83;6.77;;;;;;;-2.39;100.00;101283.59;4907568;29;20048;-79
2023/04/07 03:25:37;;;;;;;9.67;6.20;;;;;;;-2.49;100.00;101286.63;4886074;29;20067;-78
2023/04/07 03:28:03;;;;;;;11.67;6.00;;;;;;;-2.51;100.00;101285.69;4924160;29;20044;-78
2023/04/07 03:30:30;;;;;;;7.83;6.17;;;;;;;-2.45;100.00;101285.91;4908733;29;20052;-80
2023/04/07 03:32:57;;;;;;;9.33;6.63;;;;;;;-2.54;100.00;101275.19;4925557;29;20075;-78
2023/04/07 03:35:24;;;;;;;10.63;6.70;;;;;;;-2.53;100.00;101281.25;4928294;29;20048;-79
2023/04/07 03:37:50;;;;;;;9.47;6.37;;;;;;;-2.57;100.00;101283.72;4910724;29;20414;-79
2023/04/07 03:40:17;;;;;;;11.40;7.07;;;;;;;-2.48;100.00;101280.63;4926723;29;20082;-78
2023/04/07 03:42:45;;;;;;;10.57;6.27;;;;;;;-2.41;100.00;101280.06;4929772;29;20044;-78
2023/04/07 03:45:13;;;;;;;8.40;5.97;;;;;;;-2.43;100.00;101286.88;4899435;29;20067;-77
2023/04/07 03:47:40;;;;;;;8.43;6.20;;;;;;;-2.46;100.00;101283.28;4902854;29;20054;-78
2023/04/07 03:50:07;;;;;;;13.33;7.00;;;;;;;-2.46;100.00;101275.50;4915519;29;20089;-77
2023/04/07 03:52:33;;;;;;;11.17;6.17;;;;;;;-2.45;100.00;101283.31;4898364;29;20414;-78
2023/04/07 03:55:00;;;;;;;11.80;7.30;;;;;;;-2.36;100.00;101278.53;4913544;29;20071;-78
2023/04/07 03:57:27;;;;;;;14.97;7.80;;;;;;;-2.31;100.00;101279.63;4918920;29;20023;-78
2023/04/07 03:59:54;;;;;;;13.73;8.30;;;;;;;-2.43;100.00;101289.47;4923851;29;20039;-78
2023/04/07 04:02:21;;;;;;;13.90;8.13;;;;;;;-2.38;100.00;101287.06;4916733;29;20043;-79
2023/04/07 04:04:48;;;;;;;14.03;8.10;;;;;;;-2.51;100.00;101288.28;4922864;29;20048;-78
2023/04/07 04:07:15;;;;;;;14.13;8.47;;;;;;;-2.38;100.00;101281.88;4922980;29;20050;-79
2023/04/07 04:09:42;;;;;;;15.53;7.10;;;;;;;-2.38;100.00;101287.94;4922015;29;20078;-79
2023/04/07 04:12:08;;;;;;;12.47;7.43;;;;;;;-2.42;100.00;101286.06;4904235;29;20040;-79
2023/04/07 04:14:35;;;;;;;13.53;8.10;;;;;;;-2.26;100.00;101282.41;4919527;29;20058;-78
2023/04/07 04:17:02;;;;;;;15.67;7.73;;;;;;;-2.23;100.00;101284.22;4903164;29;20046;-78
2023/04/07 04:19:31;;;;;;;12.07;7.63;;;;;;;-2.17;100.00;101284.50;4921903;29;20051;-79
2023/04/07 04:22:00;;;;;;;14.03;7.63;;;;;;;-2.18;100.00;101283.59;4907981;29;20320;-79
2023/04/07 04:24:27;;;;;;;12.57;7.60;;;;;;;-2.20;100.00;101274.88;4917515;29;20040;-79
2023/04/07 04:26:53;;;;;;;12.83;7.77;;;;;;;-2.22;100.00;101280.81;4906081;29;20422;-78
2023/04/07 04:29:20;;;;;;;15.70;8.47;;;;;;;-2.20;100.00;101281.75;4921322;29;20047;-78
2023/04/07 04:31:47;;;;;;;20.87;9.07;;;;;;;-2.17;100.00;101279.31;4917461;29;20052;-78
2023/04/07 04:34:14;;;;;;;12.10;7.73;;;;;;;-2.17;100.00;101274.13;4917252;29;20062;-78
2023/04/07 04:36:41;;;;;;;14.07;7.27;;;;;;;-2.12;100.00;101270.00;4918751;29;20040;-79
2023/04/07 04:39:08;;;;;;;11.13;8.23;;;;;;;-2.04;100.00;101266.91;4915367;29;20050;-78
2023/04/07 04:41:35;;;;;;;11.90;7.30;;;;;;;-2.03;100.00;101272.97;4927908;29;21522;-79
2023/04/07 04:44:02;;;;;;;12.27;8.20;;;;;;;-1.98;100.00;101274.03;4935829;29;20040;-79
2023/04/07 04:46:30;;;;;;;15.13;8.30;;;;;;;-1.94;100.00;101281.09;4910833;29;20039;-78
2023/04/07 04:48:57;;;;;;;13.30;8.10;;;;;;;-1.87;100.00;101271.88;4907997;29;20063;-78
2023/04/07 04:51:25;;;;;;;13.30;8.03;;;;;;;-1.77;100.00;101276.59;4908801;29;20054;-78
2023/04/07 04:53:51;;;;;;;12.63;8.07;;;;;;;-1.66;100.00;101272.72;4924450;29;20505;-79
2023/04/07 04:56:20;;;;;;;12.53;7.80;;;;;;;-1.67;100.00;101267.50;4904077;29;20051;-78
2023/04/07 04:58:46;;;;;;;11.73;7.27;;;;;;;-1.60;100.00;101274.63;4922715;29;20044;-79
2023/04/07 05:01:13;;;;;;;11.60;7.93;;;;;;;-1.51;100.00;101281.09;4909113;29;20395;-79
2023/04/07 05:03:42;;;;;;;15.37;8.67;;;;;;;-1.41;100.00;101282.31;4924794;29;20572;-79
2023/04/07 05:06:09;;;;;;;12.80;8.03;;;;;;;-1.32;100.00;101284.38;4922646;29;20111;-79
2023/04/07 05:08:36;;;;;;;13.43;7.27;;;;;;;-1.23;100.00;101279.53;4906088;29;20067;-79
2023/04/07 05:11:03;;;;;;;12.53;7.17;;;;;;;-1.14;100.00;101292.81;4942797;29;20063;-79
2023/04/07 05:13:30;;;;;;;11.77;7.60;;;;;;;-1.04;100.00;101286.25;4936733;29;20107;-78
2023/04/07 05:15:57;;;;;;;12.83;7.10;;;;;;;-0.90;100.00;101295.44;4923211;29;20044;-78
2023/04/07 05:18:24;;;;;;;12.40;8.20;;;;;;;-0.75;100.00;101290.78;4906665;29;20663;-78
2023/04/07 05:20:51;;;;;;;13.10;8.70;;;;;;;-0.58;100.00;101287.06;4922533;29;20051;-78
2023/04/07 05:23:17;;;;;;;14.23;7.60;;;;;;;-0.55;100.00;101290.59;4920359;29;20048;-78
2023/04/07 05:25:44;;;;;;;11.53;7.13;;;;;;;-0.45;100.00;101288.34;4928591;29;20050;-78
2023/04/07 05:28:11;;;;;;;12.67;7.20;;;;;;;-0.34;100.00;101293.91;4917068;29;20163;-78
2023/04/07 05:30:38;;;;;;;14.40;7.40;;;;;;;-0.20;100.00;101291.78;4924704;29;20047;-78
2023/04/07 05:33:05;;;;;;;15.40;8.77;;;;;;;-0.12;100.00;101290.31;4920530;29;20043;-78
2023/04/07 05:35:31;;;;;;;15.17;7.93;;;;;;;0.00;100.00;101288.13;4920180;29;20095;-78
2023/04/07 05:37:58;;;;;;;8.93;6.60;;;;;;;0.12;100.00;101285.03;4905133;29;20111;-78
2023/04/07 05:40:25;;;;;;;14.23;8.73;;;;;;;0.22;100.00;101287.97;4922175;29;20048;-78
2023/04/07 05:42:51;;;;;;;12.23;7.87;;;;;;;0.33;100.00;101283.09;4932343;29;20527;-78
2023/04/07 05:45:18;;;;;;;12.07;7.33;;;;;;;0.48;100.00;101287.88;4934413;29;20118;-79
2023/04/07 05:47:48;;;;;;;13.43;7.43;;;;;;;0.45;100.00;101286.09;4920658;29;20039;-79
2023/04/07 05:50:16;;;;;;;16.20;8.97;;;;;;;0.58;100.00;101292.53;4934430;29;20494;-79
2023/04/07 05:52:44;;;;;;;19.63;8.57;;;;;;;0.83;100.00;101295.00;4912653;29;20040;-77
2023/04/07 05:55:13;;;;;;;12.53;7.83;;;;;;;0.82;100.00;101297.56;4915286;29;20064;-78
2023/04/07 05:57:43;;;;;;;13.07;7.27;;;;;;;0.97;100.00;101294.53;4940116;29;20131;-79
2023/04/07 06:00:10;;;;;;;13.83;7.30;;;;;;;1.09;100.00;101290.56;4912034;29;20054;-82
2023/04/07 06:02:38;;;;;;;15.20;8.10;;;;;;;1.13;100.00;101291.53;4913401;29;20043;-83
2023/04/07 06:05:06;;;;;;;16.17;7.53;;;;;;;1.13;100.00;101288.94;4933428;29;20405;-82
2023/04/07 06:07:33;;;;;;;11.37;7.30;;;;;;;1.15;100.00;101284.63;4928961;29;20043;-81
2023/04/07 06:10:00;;;;;;;16.00;8.53;;;;;;;1.45;100.00;101288.94;4912949;29;20079;-82
2023/04/07 06:12:26;;;;;;;11.90;7.27;;;;;;;1.61;100.00;101284.16;4911012;29;20130;-82
2023/04/07 06:14:54;;;;;;;14.83;7.90;;;;;;;1.62;100.00;101285.91;4898980;29;20083;-81
2023/04/07 06:17:22;;;;;;;15.00;7.97;;;;;;;1.68;99.99;101279.97;4910941;29;20123;-81
2023/04/07 06:19:49;;;;;;;15.17;7.27;;;;;;;1.86;99.74;101279.56;4942607;29;20138;-79
2023/04/07 06:22:16;;;;;;;13.83;7.43;;;;;;;1.95;100.00;101280.69;4910754;29;20081;-78
2023/04/07 06:24:43;;;;;;;11.07;7.03;;;;;;;2.10;100.00;101288.00;4908227;29;20063;-78
2023/04/07 06:27:09;;;;;;;10.13;6.63;;;;;;;2.12;97.65;101281.06;4897160;29;20044;-79
2023/04/07 06:29:36;;;;;;;10.23;6.23;;;;;;;2.16;99.12;101285.50;4927407;29;20039;-79
2023/04/07 06:32:03;;;;;;;12.00;6.87;;;;;;;2.22;98.44;101284.78;4912032;29;20050;-79
2023/04/07 06:34:30;;;;;;;11.90;6.27;;;;;;;2.29;98.13;101291.03;4910317;29;20055;-79
2023/04/07 06:36:57;;;;;;;11.87;6.87;;;;;;;2.44;97.71;101288.78;4926986;29;20126;-80
2023/04/07 06:39:26;;;;;;;10.17;6.07;;;;;;;2.35;99.80;101296.34;4925289;29;20039;-80
2023/04/07 06:41:53;;;;;;;12.77;6.57;;;;;;;2.42;100.00;101291.31;4891398;29;20052;-78
2023/04/07 06:44:19;;;;;;;11.97;6.33;;;;;;;2.44;98.61;101294.00;4918017;29;20051;-78
2023/04/07 06:46:49;;;;;;;8.83;5.73;;;;;;;2.48;98.80;101293.19;4892901;29;20126;-77
2023/04/07 06:49:16;;;;;;;8.03;5.70;;;;;;;2.59;99.14;101291.69;4908158;29;20075;-79
2023/04/07 06:51:43;;;;;;;12.30;5.63;;;;;;;2.72;91.97;101298.06;4927483;29;20584;-78
2023/04/07 06:54:12;;;;;;;9.97;6.00;;;;;;;2.62;94.93;101298.72;4910246;29;20043;-80
2023/04/07 06:56:40;;;;;;;8.87;5.00;;;;;;;2.66;93.22;101301.41;4913556;29;20494;-80
2023/04/07 06:59:07;;;;;;;9.83;5.40;;;;;;;2.82;93.18;101300.03;4913076;29;20130;-78
2023/04/07 07:01:34;;;;;;;9.07;5.97;;;;;;;2.69;92.93;101290.16;4895663;29;20504;-79
2023/04/07 07:04:02;;;;;;;8.67;5.07;;;;;;;2.76;92.85;101300.75;4916259;29;20062;-79
2023/04/07 07:06:30;;;;;;;8.57;5.50;;;;;;;2.85;90.57;101296.59;4900580;29;20525;-79
2023/04/07 07:08:59;;;;;;;7.57;5.03;;;;;;;2.85;90.11;101301.81;4913344;29;20107;-80
2023/04/07 07:11:26;;;;;;;10.83;5.83;;;;;;;2.87;92.74;101308.84;4916600;29;20052;-79
2023/04/07 07:13:53;;;;;;;9.67;5.47;;;;;;;2.90;92.39;101305.41;4910597;29;20051;-78
2023/04/07 07:16:22;;;;;;;9.63;4.97;;;;;;;3.05;91.34;101301.38;4928546;29;20036;-79
2023/04/07 07:18:50;;;;;;;10.93;5.67;;;;;;;3.09;90.69;101299.72;4919200;29;20047;-80
2023/04/07 07:21:17;;;;;;;7.43;4.77;;;;;;;3.11;95.43;101300.63;4908566;29;20047;-78
2023/04/07 07:23:44;;;;;;;7.63;4.47;;;;;;;3.05;90.90;101303.13;4911339;29;20058;-80
2023/04/07 07:26:12;;;;;;;7.77;4.60;;;;;;;3.09;90.71;101300.59;4916706;29;20048;-79
2023/04/07 07:28:39;;;;;;;8.33;5.40;;;;;;;2.96;92.42;101306.44;4932097;29;20490;-80
2023/04/07 07:31:11;;;;;;;7.10;4.70;;;;;;;2.90;96.21;101321.06;4914501;29;20047;-83
2023/04/07 07:33:40;;;;;;;8.87;4.80;;;;;;;2.90;97.79;101323.69;4898928;29;20047;-79
2023/04/07 07:36:07;;;;;;;8.50;4.83;;;;;;;3.14;96.71;101325.94;4910610;29;20040;-81
2023/04/07 07:38:35;;;;;;;6.90;4.37;;;;;;;3.16;97.95;101319.00;4922334;29;20044;-82
2023/04/07 07:41:03;;;;;;;9.47;5.30;;;;;;;3.18;98.48;101323.38;4927942;29;20511;-81
2023/04/07 07:43:30;;;;;;;9.77;4.80;;;;;;;3.26;98.23;101323.53;4895696;29;20040;-80
2023/04/07 07:45:57;;;;;;;8.30;4.80;;;;;;;3.26;97.32;101324.41;4907623;29;20044;-80
2023/04/07 07:48:24;;;;;;;8.87;4.93;;;;;;;3.05;98.51;101317.06;4920144;29;20050;-80
2023/04/07 07:50:55;;;;;;;8.57;5.33;;;;;;;3.04;98.82;101323.13;4908776;29;20513;-79
2023/04/07 07:53:22;;;;;;;9.53;4.93;;;;;;;2.92;100.00;101319.38;4908496;29;20632;-81
2023/04/07 07:55:49;;;;;;;7.87;5.27;;;;;;;2.90;100.00;101328.91;4936872;29;20063;-82
2023/04/07 07:58:16;;;;;;;9.23;5.00;;;;;;;3.04;100.00;101324.88;4910274;29;20139;-80
2023/04/07 08:00:43;;;;;;;8.03;4.77;;;;;;;3.14;100.00;101325.94;4911434;29;20494;-84
2023/04/07 08:03:10;;;;;;;10.37;4.83;;;;;;;3.14;100.00;101328.53;4924079;29;20035;-82
2023/04/07 08:05:38;;;;;;;9.90;4.80;;;;;;;3.23;100.00;101328.72;4906793;29;20131;-80
2023/04/07 08:08:07;;;;;;;7.93;4.43;;;;;;;3.25;100.00;101329.63;4907641;29;20671;-81
2023/04/07 08:10:34;;;;;;;6.80;4.37;;;;;;;3.25;100.00;101329.63;4927960;29;20165;-81
2023/04/07 08:13:01;;;;;;;8.37;4.53;;;;;;;3.34;100.00;101337.63;4913772;29;20044;-83
2023/04/07 08:15:28;;;;;;;6.57;4.67;;;;;;;3.50;100.00;101334.47;4915507;29;20114;-80
2023/04/07 08:17:55;;;;;;;8.13;4.67;;;;;;;3.44;100.00;101339.56;4925947;29;20812;-80
2023/04/07 08:20:22;;;;;;;7.70;4.80;;;;;;;3.59;100.00;101345.09;4913537;29;20044;-81
2023/04/07 08:22:49;;;;;;;9.27;4.73;;;;;;;3.65;100.00;101342.59;4930128;29;20592;-81
2023/04/07 08:25:17;;;;;;;8.53;4.53;;;;;;;3.72;100.00;101343.59;4928975;29;20044;-81
2023/04/07 08:27:44;;;;;;;7.87;5.30;;;;;;;3.65;100.00;101334.75;4927427;29;20047;-83
2023/04/07 08:30:11;;;;;;;7.70;4.77;;;;;;;3.58;100.00;101343.34;4923909;29;20078;-81
2023/04/07 08:32:44;;;;;;;8.07;4.87;;;;;;;3.59;100.00;101347.69;4929053;29;20071;-81
2023/04/07 08:35:11;;;;;;;6.83;4.67;;;;;;;3.61;100.00;101348.59;4930992;29;20043;-80
2023/04/07 08:37:40;;;;;;;8.33;6.30;;;;;;;3.46;100.00;101343.13;4911837;29;20040;-81
2023/04/07 08:40:12;;;;;;;9.53;6.17;;;;;;;3.54;100.00;101340.66;4914781;29;20523;-81
2023/04/07 08:42:41;;;;;;;8.47;5.70;;;;;;;3.45;100.00;101349.19;4926378;29;20521;-81
2023/04/07 08:45:09;;;;;;;10.67;6.13;;;;;;;3.65;100.00;101352.19;4913199;29;20050;-81
2023/04/07 08:47:40;;;;;;;9.97;5.90;;;;;;;3.63;100.00;101352.16;4897455;29;20110;-81
2023/04/07 08:50:10;;;;;;;12.10;6.33;;;;;;;3.62;100.00;101357.34;4903022;29;20064;-80
2023/04/07 08:52:44;;;;;;;9.47;6.33;;;;;;;3.56;100.00;101359.84;4928403;29;20134;-82
2023/04/07 08:55:11;;;;;;;;;;;;;;;3.41;100.00;101356.94;4929675;29;20063;-80
2023/04/07 08:57:38;;;;;;;10.97;5.77;;;;;;;3.49;100.00;101353.63;4912137;29;20325;-80
2023/04/07 09:00:06;;;;;;;8.87;5.63;;;;;;;3.53;100.00;101355.44;4909058;29;20051;-81
2023/04/07 09:02:34;;;;;;;12.03;6.93;;;;;;;3.54;100.00;101356.31;4920818;29;20063;-80
2023/04/07 09:05:03;;;;;;;10.03;6.40;;;;;;;3.64;100.00;101358.25;4914526;29;20044;-80
2023/04/07 09:07:32;;;;;;;9.83;6.20;;;;;;;3.56;100.00;101357.22;4930244;29;20098;-80
2023/04/07 09:10:00;;;;;;;7.97;5.50;;;;;;;3.55;100.00;101363.31;4927384;29;20123;-83
2023/04/07 09:12:28;;;;;;;9.17;5.87;;;;;;;3.47;100.00;101360.53;4899641;29;20067;-81
2023/04/07 09:15:00;;;;;;;9.33;5.80;;;;;;;3.41;100.00;101359.53;4915994;29;20127;-80
2023/04/07 09:17:28;;;;;;;9.70;5.90;;;;;;;3.50;100.00;101359.72;4923599;29;20694;-81
2023/04/07 09:19:56;;;;;;;8.50;5.27;;;;;;;3.56;100.00;101354.63;4912969;29;20497;-81
2023/04/07 09:22:37;;;;;;;7.87;5.67;;;;;;;3.59;100.00;101362.50;4930623;29;20545;-82
2023/04/07 09:25:17;;;;;;;7.87;5.00;;;;;;;3.73;100.00;101354.94;4923854;29;20044;-80
2023/04/07 09:27:58;;;;;;;7.20;4.50;;;;;;;3.68;100.00;101358.31;4899187;29;20458;-82
2023/04/07 09:30:27;;;;;;;7.03;4.70;;;;;;;3.66;100.00;101353.94;4912041;29;20051;-80
2023/04/07 09:32:55;;;;;;;15.63;6.97;;;;;;;3.83;100.00;101352.50;4910456;29;20134;-80
2023/04/07 09:35:23;;;;;;;8.57;5.33;;;;;;;3.82;100.00;101344.66;4916477;29;20080;-80
2023/04/07 09:38:03;;;;;;;6.37;4.70;;;;;;;3.82;100.00;101355.97;4899811;29;20063;-81
2023/04/07 09:40:31;;;;;;;7.83;5.20;;;;;;;3.79;100.00;101353.31;4936907;29;20056;-81
2023/04/07 09:42:58;;;;;;;8.83;5.37;;;;;;;3.64;100.00;101353.03;4913831;29;20040;-80
2023/04/07 09:45:26;;;;;;;10.30;5.33;;;;;;;3.85;100.00;101339.47;4898942;29;20052;-82
2023/04/07 09:48:06;;;;;;;9.93;4.90;;;;;;;3.67;100.00;101343.50;4912670;29;20052;-81
2023/04/07 09:50:35;;;;;;;6.87;4.43;;;;;;;3.80;100.00;101344.63;4909033;29;20506;-81
2023/04/07 09:53:03;;;;;;;6.07;4.23;;;;;;;3.80;100.00;101346.34;4924494;29;20055;-81
2023/04/07 09:55:32;;;;;;;7.63;4.83;;;;;;;3.81;100.00;101343.78;4931464;29;20095;-80
2023/04/07 09:58:00;;;;;;;8.13;4.97;;;;;;;3.79;100.00;101347.22;4923047;29;20047;-80
2023/04/07 10:00:27;;;;;;;9.00;5.23;;;;;;;3.86;100.00;101344.72;4893049;29;20171;-81
2023/04/07 10:02:55;;;;;;;8.10;5.00;;;;;;;3.83;100.00;101351.63;4913542;29;20074;-81
2023/04/07 10:05:22;;;;;;;5.57;4.07;;;;;;;3.84;100.00;101346.41;4919549;29;20462;-80
2023/04/07 10:07:50;;;;;;;7.73;4.90;;;;;;;3.87;100.00;101343.88;4928196;29;20506;-81
2023/04/07 10:10:17;;;;;;;8.90;4.80;;;;;;;3.93;100.00;101343.09;4925200;29;20047;-81
2023/04/07 10:12:45;;;;;;;6.17;3.93;;;;;;;3.80;100.00;101351.59;4895908;29;20472;-81
2023/04/07 10:15:14;;;;;;;8.20;5.40;;;;;;;3.77;100.00;101346.28;4908338;29;20048;-80
2023/04/07 10:17:46;;;;;;;7.93;5.13;;;;;;;3.67;100.00;101353.97;4913557;29;20087;-81
2023/04/07 10:20:19;;;;;;;9.77;5.30;;;;;;;3.70;100.00;101347.03;4903257;29;20123;-82
2023/04/07 10:22:51;;;;;;;8.53;5.03;;;;;;;3.68;100.00;101349.59;4925585;29;20122;-80
2023/04/07 10:25:20;;;;;;;9.20;5.07;;;;;;;3.68;100.00;101345.25;4924893;29;20046;-81
2023/04/07 10:27:55;;;;;;;7.53;5.37;;;;;;;3.87;100.00;101350.84;4910729;29;20040;-82
2023/04/07 10:30:27;;;;;;;8.00;4.73;;;;;;;3.96;100.00;101348.41;4912701;29;20433;-80
2023/04/07 10:32:54;;;;;;;8.47;5.60;;;;;;;3.78;100.00;101348.91;4913363;29;20050;-81
2023/04/07 10:35:22;;;;;;;11.13;5.33;;;;;;;3.97;100.00;101351.88;4895579;29;20036;-82
2023/04/07 10:38:12;;;;;;;8.70;5.57;;;;;;;4.01;100.00;101351.94;4924267;29;20618;-81
2023/04/07 10:40:41;;;;;;;9.30;5.33;;;;;;;4.03;100.00;101344.13;4923469;29;20095;-80
2023/04/07 10:43:13;;;;;;;9.30;5.70;;;;;;;3.90;100.00;101350.91;4906261;29;20044;-79
2023/04/07 10:45:47;;;;;;;10.13;5.40;;;;;;;3.98;100.00;101345.81;4909510;29;20050;-80
2023/04/07 10:48:16;;;;;;;8.07;5.53;;;;;;;3.99;100.00;101337.09;4909143;29;20099;-79
2023/04/07 10:51:02;;;;;;;9.43;5.60;;;;;;;4.00;100.00;101336.25;4912123;29;20051;-79
2023/04/07 10:53:30;;;;;;;9.57;5.87;;;;;;;3.98;100.00;101345.81;4940425;29;20055;-79
2023/04/07 10:55:58;;;;;;;11.17;7.30;;;;;;;4.00;100.00;101342.34;4908735;29;20051;-79
2023/04/07 10:58:28;;;;;;;9.13;5.17;;;;;;;4.14;100.00;101334.75;4925850;29;20035;-80
2023/04/07 11:01:08;;;;;;;8.07;5.47;;;;;;;4.08;100.00;101338.13;4909146;29;20077;-79
2023/04/07 11:03:37;;;;;;;9.50;4.97;;;;;;;4.01;100.00;101330.16;4918499;29;20036;-80
2023/04/07 11:06:07;;;;;;;9.10;5.30;;;;;;;4.14;100.00;101330.41;4923896;29;20043;-79
2023/04/07 11:08:41;;;;;;;10.87;6.40;;;;;;;4.17;100.00;101329.56;4920083;29;20049;-82
2023/04/07 11:11:19;;;;;;;8.47;5.50;;;;;;;4.20;100.00;101334.81;4924335;29;20035;-79
2023/04/07 11:13:48;;;;;;;8.97;5.33;;;;;;;4.29;100.00;101329.78;4923480;29;20075;-79
2023/04/07 11:16:17;;;;;;;9.20;5.20;;;;;;;4.33;100.00;101326.31;4921758;29;20036;-79
2023/04/07 11:18:46;;;;;;;11.27;5.43;;;;;;;4.49;100.00;101322.22;4927225;29;20409;-79
2023/04/07 11:21:17;;;;;;;7.83;5.40;;;;;;;4.49;100.00;101320.47;4897115;29;20043;-78
2023/04/07 11:23:46;;;;;;;12.93;5.87;;;;;;;4.47;100.00;101324.81;4897476;29;20556;-82
2023/04/07 11:26:14;;;;;;;9.67;5.87;;;;;;;4.66;100.00;101322.47;4906352;29;20557;-79